Time;durP1;ratioP1;P1;durP2;ratioP2;P2;SDS_P1;SDS_P2;PMS_P1;PMS_P2;Temp;Humidity;BMP_temperature;BMP_pressure;BME280_temperature;BME280_humidity;BME280_pressure;Samples;Min_cycle;Max_cycle;Signal;HPM_P1;HPM_P2
2022/11/16 00:00:09;;;;;;;50.55;27.20;;;11.10;99.90;;;;;;5012887;28;20056;-68
2022/11/16 00:03:13;;;;;;;547.75;47.63;;;11.20;99.90;;;;;;5013019;28;20049;-67
2022/11/16 00:06:19;;;;;;;101.68;30.00;;;11.20;99.90;;;;;;5013068;28;20056;-69
2022/11/16 00:09:25;;;;;;;787.63;64.80;;;11.30;99.90;;;;;;5013127;28;20053;-69
2022/11/16 00:12:30;;;;;;;538.00;48.00;;;11.30;99.90;;;;;;5013281;28;20049;-69
2022/11/16 00:15:33;;;;;;;574.95;53.45;;;11.20;99.90;;;;;;5012887;28;20049;-68
2022/11/16 00:18:39;;;;;;;85.25;28.95;;;11.30;99.90;;;;;;5012028;28;20045;-68
2022/11/16 00:21:44;;;;;;;93.07;29.98;;;11.30;99.90;;;;;;5013159;28;20041;-69
2022/11/16 00:24:48;;;;;;;730.65;58.17;;;11.40;99.90;;;;;;5012653;28;20037;-69
2022/11/16 00:27:52;;;;;;;72.00;25.80;;;11.40;99.90;;;;;;5013011;28;20053;-68
2022/11/16 00:31:01;;;;;;;90.53;29.50;;;11.40;99.90;;;;;;5013152;28;20044;-68
2022/11/16 00:34:05;;;;;;;331.40;37.65;;;11.40;99.90;;;;;;5011421;28;20508;-68
2022/11/16 00:37:08;;;;;;;957.42;66.55;;;11.40;99.90;;;;;;5012734;28;20045;-68
2022/11/16 00:40:13;;;;;;;902.10;61.67;;;11.30;99.90;;;;;;5012846;28;20037;-68
2022/11/16 00:43:17;;;;;;;999.97;78.55;;;11.30;99.90;;;;;;5012305;28;20040;-67
2022/11/16 00:46:21;;;;;;;195.30;29.92;;;11.20;99.90;;;;;;5011922;28;20061;-68
2022/11/16 00:49:25;;;;;;;130.80;29.23;;;11.30;99.90;;;;;;5012402;28;20040;-68
2022/11/16 00:52:29;;;;;;;52.72;20.50;;;11.30;99.90;;;;;;5011992;28;20527;-69
2022/11/16 00:55:34;;;;;;;119.80;25.63;;;11.40;99.90;;;;;;5011397;28;20373;-68
2022/11/16 00:58:40;;;;;;;69.68;21.08;;;11.40;99.90;;;;;;5011739;28;20060;-69
2022/11/16 01:01:47;;;;;;;136.23;24.45;;;11.50;99.90;;;;;;5013392;28;20511;-69
2022/11/16 01:04:51;;;;;;;43.38;20.52;;;11.50;99.90;;;;;;5022428;28;20044;-69
2022/11/16 01:07:56;;;;;;;162.38;26.92;;;11.40;99.90;;;;;;5012494;28;20041;-68
2022/11/16 01:14:22;;;;;;;;;;;11.40;99.90;;;;;;5022766;28;20041;-68
2022/11/16 01:17:26;;;;;;;494.17;42.63;;;11.30;99.90;;;;;;5012274;28;19932;-68
2022/11/16 01:20:31;;;;;;;554.42;46.38;;;11.30;99.90;;;;;;5012212;28;20057;-68
2022/11/16 01:23:35;;;;;;;483.10;37.88;;;11.30;99.90;;;;;;5011298;28;20500;-68
2022/11/16 01:26:39;;;;;;;112.53;22.65;;;11.30;99.90;;;;;;5010991;28;20385;-68
2022/11/16 01:29:44;;;;;;;289.20;28.95;;;11.40;99.90;;;;;;5010878;28;20496;-68
2022/11/16 01:32:50;;;;;;;557.50;41.95;;;11.40;99.90;;;;;;5010934;28;20732;-69
2022/11/16 01:35:55;;;;;;;947.65;64.65;;;11.40;99.90;;;;;;5011047;28;20503;-69
2022/11/16 01:39:03;;;;;;;1360.68;83.78;;;11.30;99.90;;;;;;5010348;28;20489;-69
2022/11/16 01:42:22;;;;;;;142.80;23.92;;;11.40;99.90;;;;;;5010779;28;20038;-69
2022/11/16 01:45:40;;;;;;;298.88;32.95;;;11.40;99.90;;;;;;5021641;28;20049;-69
2022/11/16 01:48:49;;;;;;;78.60;18.75;;;11.50;99.90;;;;;;5011654;28;20065;-68
2022/11/16 01:51:58;;;;;;;196.18;24.58;;;11.60;99.90;;;;;;5010781;28;20546;-69
2022/11/16 01:55:04;;;;;;;393.67;32.78;;;11.60;99.90;;;;;;5010402;28;20064;-68
2022/11/16 01:58:21;;;;;;;518.65;36.38;;;11.50;99.90;;;;;;5011680;28;20060;-69
2022/11/16 02:01:31;;;;;;;979.20;61.83;;;11.50;99.90;;;;;;5021954;28;20417;-69
2022/11/16 02:04:38;;;;;;;1061.97;70.80;;;11.50;99.90;;;;;;5009974;28;20069;-68
2022/11/16 02:11:44;;;;;;;1267.55;80.00;;;11.40;99.90;;;;;;5022155;28;20489;-68
2022/11/16 02:15:13;;;;;;;1425.93;93.18;;;11.40;99.90;;;;;;5010089;28;20496;-68
2022/11/16 02:18:33;;;;;;;1030.25;77.97;;;11.40;99.90;;;;;;5010640;28;20041;-68
2022/11/16 02:21:52;;;;;;;70.75;23.13;;;11.50;99.90;;;;;;5021697;28;20045;-69
2022/11/16 02:25:10;;;;;;;217.13;32.03;;;11.60;99.90;;;;;;5010268;28;20065;-68
2022/11/16 02:28:35;;;;;;;259.75;28.92;;;11.60;99.90;;;;;;5021857;28;20041;-68
2022/11/16 02:31:47;;;;;;;487.67;37.22;;;11.70;99.90;;;;;;5010295;28;20033;-68
2022/11/16 02:35:21;;;;;;;399.55;35.20;;;11.70;99.90;;;;;;5010852;28;20393;-69
2022/11/16 02:38:32;;;;;;;378.88;34.40;;;11.60;99.90;;;;;;5009937;28;20524;-69
2022/11/16 02:41:41;;;;;;;289.17;30.63;;;11.60;99.90;;;;;;5011313;28;20049;-69
2022/11/16 02:44:49;;;;;;;919.92;62.42;;;11.60;99.90;;;;;;5021329;28;20596;-69
2022/11/16 02:47:58;;;;;;;855.97;57.53;;;11.50;99.90;;;;;;5010397;28;20037;-68
2022/11/16 02:51:05;;;;;;;638.25;46.50;;;11.50;99.90;;;;;;5014664;28;20515;-68
2022/11/16 02:54:15;;;;;;;547.63;40.25;;;11.50;99.90;;;;;;5025038;28;20049;-69
2022/11/16 02:57:44;;;;;;;657.03;47.03;;;11.50;99.90;;;;;;5014002;28;20504;-69
2022/11/16 03:00:59;;;;;;;187.35;21.05;;;11.50;99.90;;;;;;5013787;28;20049;-69
2022/11/16 03:04:13;;;;;;;322.23;26.55;;;11.60;99.90;;;;;;5012936;28;20049;-69
2022/11/16 03:07:22;;;;;;;42.47;14.95;;;11.60;99.90;;;;;;5014438;28;20049;-69
2022/11/16 03:14:00;;;;;;;424.83;30.60;;;11.60;99.90;;;;;;5024464;28;20068;-69
2022/11/16 03:17:10;;;;;;;66.60;17.25;;;11.60;99.90;;;;;;5013384;28;20503;-69
2022/11/16 03:20:25;;;;;;;785.78;43.45;;;11.60;99.90;;;;;;5013622;28;20049;-69
2022/11/16 03:23:32;;;;;;;749.50;47.92;;;11.50;99.90;;;;;;5013709;28;20068;-68
2022/11/16 03:26:59;;;;;;;763.40;50.60;;;11.50;99.90;;;;;;5014358;28;20053;-69
2022/11/16 03:30:13;;;;;;;435.65;31.92;;;11.50;99.90;;;;;;5013481;28;20049;-69
2022/11/16 03:33:44;;;;;;;148.68;21.05;;;11.50;99.90;;;;;;5024053;28;20048;-68
2022/11/16 03:36:51;;;;;;;65.03;16.17;;;11.60;99.90;;;;;;5013159;28;20100;-68
2022/11/16 03:39:56;;;;;;;445.17;32.97;;;11.60;99.90;;;;;;5013262;28;20061;-68
2022/11/16 03:43:03;;;;;;;340.17;29.40;;;11.70;99.90;;;;;;5012660;28;20053;-68
2022/11/16 03:46:07;;;;;;;208.95;22.35;;;11.70;99.90;;;;;;5024661;28;20045;-69
2022/11/16 03:49:12;;;;;;;133.27;17.83;;;11.80;99.90;;;;;;5013932;28;20060;-68
2022/11/16 03:52:18;;;;;;;355.08;27.85;;;11.70;99.90;;;;;;5012958;28;20045;-69
2022/11/16 03:55:25;;;;;;;215.70;19.70;;;11.80;99.90;;;;;;5012217;28;20033;-69
2022/11/16 03:58:30;;;;;;;39.35;14.98;;;11.80;99.90;;;;;;5012561;28;20041;-68
2022/11/16 04:01:34;;;;;;;66.30;15.98;;;11.80;99.90;;;;;;5011800;28;20045;-69
2022/11/16 04:25:14;;;;;;;159.48;22.48;;;11.70;99.90;;;;;;5023156;28;20057;-69
2022/11/16 04:28:25;;;;;;;63.55;19.52;;;11.80;99.90;;;;;;5012375;28;20041;-69
2022/11/16 04:38:18;;;;;;;162.13;22.88;;;12.00;99.90;;;;;;5023508;28;20053;-69
2022/11/16 04:48:15;;;;;;;48.13;17.48;;;12.00;99.90;;;;;;5023307;28;20044;-69
2022/11/16 04:51:21;;;;;;;40.25;16.75;;;11.90;99.90;;;;;;5011510;28;20045;-69
2022/11/16 04:54:25;;;;;;;60.75;18.92;;;12.00;99.90;;;;;;5010996;28;20045;-69
2022/11/16 04:57:29;;;;;;;250.25;24.73;;;12.00;99.90;;;;;;5011743;28;20052;-69
2022/11/16 05:00:34;;;;;;;409.33;33.72;;;12.00;99.90;;;;;;5011600;28;20049;-69
2022/11/16 05:03:40;;;;;;;484.77;36.25;;;12.00;99.90;;;;;;5010895;28;20037;-69
2022/11/16 05:06:44;;;;;;;243.88;26.13;;;11.90;99.90;;;;;;5012445;28;20127;-69
2022/11/16 05:09:49;;;;;;;911.38;59.92;;;11.90;99.90;;;;;;5011585;28;20041;-69
2022/11/16 05:12:53;;;;;;;779.10;56.55;;;11.90;99.90;;;;;;5010551;28;20381;-69
2022/11/16 05:15:57;;;;;;;293.02;34.67;;;11.90;99.90;;;;;;5011174;28;20041;-68
2022/11/16 05:22:26;;;;;;;31.88;18.63;;;12.00;99.90;;;;;;5022403;28;20037;-69
2022/11/16 05:25:34;;;;;;;71.32;21.05;;;12.10;99.90;;;;;;5010907;28;20043;-69
2022/11/16 05:28:39;;;;;;;82.25;22.15;;;12.10;99.90;;;;;;5011196;28;20057;-68
2022/11/16 05:31:43;;;;;;;295.67;28.38;;;12.20;99.90;;;;;;5010775;28;20052;-69
2022/11/16 05:34:49;;;;;;;370.40;30.25;;;12.20;99.90;;;;;;5011151;28;20389;-68
2022/11/16 05:37:54;;;;;;;185.52;25.95;;;12.20;99.90;;;;;;5011437;28;20053;-68
2022/11/16 05:40:59;;;;;;;37.60;18.48;;;12.20;99.90;;;;;;5011028;28;20088;-68
2022/11/16 05:44:04;;;;;;;713.25;52.00;;;12.10;99.90;;;;;;5010784;28;20393;-68
2022/11/16 05:47:09;;;;;;;262.38;30.95;;;12.00;99.90;;;;;;5010954;28;20397;-69
2022/11/16 05:50:14;;;;;;;38.90;18.77;;;12.00;99.90;;;;;;5011403;28;20085;-68
2022/11/16 05:53:23;;;;;;;195.10;25.73;;;12.00;99.90;;;;;;5012144;28;20496;-68
2022/11/16 05:56:27;;;;;;;64.53;18.73;;;12.10;99.90;;;;;;5010795;28;20052;-69
2022/11/16 05:59:32;;;;;;;22.33;13.98;;;12.10;99.90;;;;;;5011235;28;20053;-69
2022/11/16 06:02:39;;;;;;;21.30;12.70;;;12.30;99.90;;;;;;5010653;28;20049;-68
2022/11/16 06:05:44;;;;;;;21.58;11.65;;;12.50;99.90;;;;;;5011168;28;20061;-68
2022/11/16 06:08:51;;;;;;;15.35;9.32;;;12.70;99.90;;;;;;5010911;28;20064;-68
2022/11/16 06:12:00;;;;;;;18.08;8.15;;;13.00;99.90;;;;;;5011147;28;20121;-68
2022/11/16 06:15:06;;;;;;;20.98;8.80;;;13.30;99.90;;;;;;5010772;28;20052;-69
2022/11/16 06:18:10;;;;;;;19.42;8.75;;;13.40;99.90;;;;;;5011086;28;20415;-69
2022/11/16 06:21:18;;;;;;;180.88;24.67;;;13.40;99.90;;;;;;5012000;28;20057;-68
2022/11/16 06:24:23;;;;;;;420.73;34.28;;;12.80;99.90;;;;;;5023640;28;20057;-69
2022/11/16 06:27:28;;;;;;;403.35;35.88;;;12.60;99.90;;;;;;5026149;28;20041;-69
2022/11/16 06:30:32;;;;;;;291.30;28.70;;;12.50;99.90;;;;;;5015024;28;20057;-68
2022/11/16 06:33:39;;;;;;;315.92;30.83;;;12.50;99.90;;;;;;5014974;28;20397;-69
2022/11/16 06:36:51;;;;;;;58.70;21.75;;;12.40;99.90;;;;;;5015004;28;20057;-69
2022/11/16 06:39:56;;;;;;;74.13;21.85;;;12.50;99.90;;;;;;5015261;28;20048;-68
2022/11/16 06:43:01;;;;;;;181.43;24.90;;;12.50;99.90;;;;;;5013858;28;20049;-68
2022/11/16 06:46:05;;;;;;;32.80;19.50;;;12.50;99.90;;;;;;5025670;28;20037;-69
2022/11/16 06:49:09;;;;;;;33.28;18.55;;;12.60;99.90;;;;;;5014172;28;20064;-68
2022/11/16 06:52:13;;;;;;;108.85;21.13;;;12.60;99.90;;;;;;5014395;28;20040;-68
2022/11/16 06:55:18;;;;;;;370.40;33.78;;;12.60;99.90;;;;;;5013881;28;20061;-69
2022/11/16 06:58:24;;;;;;;908.72;60.47;;;12.70;99.90;;;;;;5013909;28;20049;-68
2022/11/16 07:01:28;;;;;;;385.02;34.05;;;12.60;99.90;;;;;;5013879;28;20049;-69
2022/11/16 07:04:38;;;;;;;116.90;20.10;;;12.70;99.90;;;;;;5013233;28;20060;-69
2022/11/16 07:07:42;;;;;;;281.67;29.58;;;12.70;99.90;;;;;;5014165;28;20041;-69
2022/11/16 07:10:47;;;;;;;289.35;29.33;;;12.70;99.90;;;;;;5013533;28;20045;-69
2022/11/16 07:13:51;;;;;;;780.42;57.65;;;12.60;99.90;;;;;;5014502;28;20053;-68
2022/11/16 07:16:56;;;;;;;162.43;21.35;;;12.60;99.90;;;;;;5013266;28;20488;-69
2022/11/16 07:20:01;;;;;;;26.75;15.70;;;12.70;99.90;;;;;;5013481;28;20062;-68
2022/11/16 07:23:06;;;;;;;25.02;15.25;;;12.90;99.90;;;;;;5013447;28;20044;-69
2022/11/16 07:26:10;;;;;;;24.98;12.77;;;13.10;99.90;;;;;;5013340;28;20052;-69
2022/11/16 07:29:30;;;;;;;20.45;10.55;;;13.30;99.90;;;;;;5013278;28;20041;-68
2022/11/16 07:33:09;;;;;;;21.25;9.70;;;13.50;99.90;;;;;;5010307;28;20117;-69
2022/11/16 07:36:32;;;;;;;24.38;9.35;;;13.70;99.90;;;;;;5006580;28;20105;-68
2022/11/16 07:39:37;;;;;;;21.20;9.18;;;13.90;99.90;;;;;;5012635;28;20045;-68
2022/11/16 07:42:46;;;;;;;19.25;10.40;;;14.00;99.90;;;;;;5011022;28;20045;-68
2022/11/16 07:45:52;;;;;;;24.17;8.60;;;14.20;99.90;;;;;;5013297;28;20041;-69
2022/11/16 07:48:56;;;;;;;16.55;7.97;;;14.30;99.90;;;;;;5002503;28;20037;-69
2022/11/16 07:52:22;;;;;;;27.33;8.60;;;14.40;99.90;;;;;;4997883;28;20037;-69
2022/11/16 07:55:37;;;;;;;17.80;7.95;;;14.40;99.90;;;;;;5008088;28;20045;-68
2022/11/16 07:58:41;;;;;;;18.73;7.45;;;14.50;99.90;;;;;;5008014;28;20527;-69
2022/11/16 08:01:47;;;;;;;12.73;6.32;;;14.60;99.90;;;;;;5008402;28;20512;-69
2022/11/16 08:04:51;;;;;;;13.13;6.32;;;14.60;99.90;;;;;;5012386;28;20551;-69
2022/11/16 08:08:01;;;;;;;13.93;6.25;;;14.70;99.90;;;;;;5012134;28;20037;-69
2022/11/16 08:11:08;;;;;;;10.43;5.07;;;14.80;99.90;;;;;;5009439;28;20053;-69
2022/11/16 08:14:14;;;;;;;18.63;4.40;;;14.90;99.90;;;;;;5006611;28;20049;-69
2022/11/16 08:17:19;;;;;;;11.52;4.25;;;15.10;99.90;;;;;;5010676;28;20396;-69
2022/11/16 08:20:23;;;;;;;13.23;5.00;;;15.20;99.90;;;;;;5012279;28;20044;-69
2022/11/16 08:23:29;;;;;;;5.80;3.97;;;15.30;99.90;;;;;;5000127;28;20057;-69
2022/11/16 08:26:33;;;;;;;11.93;4.35;;;15.40;99.90;;;;;;5011998;28;20033;-69
2022/11/16 08:29:46;;;;;;;7.22;3.88;;;15.70;99.90;;;;;;4992459;28;20528;-69
2022/11/16 08:32:52;;;;;;;8.35;4.00;;;15.80;99.90;;;;;;5012085;28;20045;-70
2022/11/16 08:35:58;;;;;;;149.18;14.32;;;15.70;99.90;;;;;;5009071;28;20492;-69
2022/11/16 08:39:03;;;;;;;735.22;41.25;;;15.00;99.90;;;;;;5011295;28;20045;-70
2022/11/16 08:42:09;;;;;;;1200.55;68.95;;;14.30;99.90;;;;;;5008532;28;20393;-68
2022/11/16 08:45:14;;;;;;;80.22;14.68;;;14.10;99.90;;;;;;5006354;28;20045;-69
2022/11/16 08:48:19;;;;;;;23.23;12.57;;;14.10;99.90;;;;;;5009264;28;20037;-69
2022/11/16 08:51:24;;;;;;;20.75;11.48;;;14.20;99.90;;;;;;5002555;28;20044;-69
2022/11/16 08:54:40;;;;;;;14.07;8.48;;;14.60;99.90;;;;;;5010912;28;20126;-69
2022/11/16 08:57:44;;;;;;;13.63;8.45;;;14.90;99.90;;;;;;5011256;28;20049;-69
2022/11/16 09:00:50;;;;;;;11.52;6.35;;;15.10;99.90;;;;;;5009290;28;20045;-68
2022/11/16 09:03:55;;;;;;;16.23;6.38;;;15.20;99.90;;;;;;5006444;28;20508;-69
2022/11/16 09:06:58;;;;;;;10.48;5.30;;;15.20;99.90;;;;;;5005188;28;20053;-69
2022/11/16 09:10:05;;;;;;;11.50;4.72;;;15.30;99.90;;;;;;5006995;28;20044;-69
2022/11/16 09:13:10;;;;;;;14.32;4.38;;;15.40;99.90;;;;;;5010808;28;20441;-69
2022/11/16 09:16:15;;;;;;;8.25;3.83;;;15.50;99.90;;;;;;5011804;28;20049;-69
2022/11/16 09:19:20;;;;;;;7.68;3.72;;;15.50;99.90;;;;;;4993888;28;20045;-69
2022/11/16 09:22:24;;;;;;;9.02;3.88;;;15.50;99.90;;;;;;5012318;28;20066;-69
2022/11/16 09:25:28;;;;;;;8.88;3.78;;;15.60;99.90;;;;;;5005343;28;20053;-69
2022/11/16 09:28:32;;;;;;;11.20;3.65;;;15.80;99.90;;;;;;5006857;28;20389;-69
2022/11/16 09:31:40;;;;;;;10.35;4.00;;;16.10;99.90;;;;;;5007388;28;20059;-69
2022/11/16 09:34:44;;;;;;;10.02;4.10;;;16.30;99.90;;;;;;5008535;28;20044;-68
2022/11/16 09:37:49;;;;;;;8.85;3.63;;;16.50;99.90;;;;;;5009955;28;20053;-69
2022/11/16 09:40:55;;;;;;;11.10;3.67;;;16.50;99.90;;;;;;5007845;28;20057;-69
2022/11/16 09:44:08;;;;;;;6.53;2.70;;;16.50;99.90;;;;;;5007428;28;20048;-69
2022/11/16 09:47:58;;;;;;;12.82;6.97;;;16.50;99.90;;;;;;5014694;28;20057;-69
2022/11/16 09:51:08;;;;;;;32.30;8.20;;;16.10;99.90;;;;;;5004850;28;20041;-70
2022/11/16 09:54:17;;;;;;;9.25;4.95;;;16.10;99.90;;;;;;5011599;28;20044;-69
2022/11/16 09:57:31;;;;;;;7.85;3.92;;;16.20;99.90;;;;;;4993425;28;20121;-67
2022/11/16 10:00:36;;;;;;;11.32;3.40;;;17.20;99.90;;;;;;5011079;28;20045;-70
2022/11/16 10:03:45;;;;;;;6.22;3.50;;;18.90;99.90;;;;;;5010176;28;20045;-70
2022/11/16 10:07:07;;;;;;;11.30;4.32;;;19.70;99.90;;;;;;5012373;28;20508;-67
2022/11/16 10:10:17;;;;;;;7.70;3.10;;;22.40;99.90;;;;;;5015396;28;20218;-69
2022/11/16 10:13:55;;;;;;;8.63;4.38;;;22.00;99.90;;;;;;4999588;28;20033;-69
2022/11/16 10:17:12;;;;;;;9.15;6.05;;;20.20;99.90;;;;;;5010713;28;20060;-69
2022/11/16 10:20:49;;;;;;;31.58;9.13;;;18.50;99.90;;;;;;5004334;28;20041;-69
2022/11/16 10:24:32;;;;;;;20.67;8.75;;;17.70;99.90;;;;;;5006137;28;20061;-69
2022/11/16 10:27:45;;;;;;;17.45;9.70;;;17.40;99.90;;;;;;5008092;28;20045;-69
2022/11/16 10:31:14;;;;;;;19.15;9.27;;;17.50;99.90;;;;;;5007912;28;20393;-68
2022/11/16 10:34:24;;;;;;;;;;;17.50;99.90;;;;;;5001667;28;20045;-69
2022/11/16 10:37:31;;;;;;;17.00;9.88;;;16.90;99.90;;;;;;5009433;28;19932;-69
2022/11/16 10:40:37;;;;;;;16.35;8.55;;;16.80;99.90;;;;;;5003210;28;20045;-69
2022/11/16 10:43:43;;;;;;;12.77;6.72;;;16.90;99.90;;;;;;4999529;28;20048;-69
2022/11/16 10:47:03;;;;;;;10.13;4.80;;;16.80;99.90;;;;;;5010855;28;20041;-69
2022/11/16 10:50:22;;;;;;;14.75;6.05;;;17.10;99.90;;;;;;5010515;28;20052;-69
2022/11/16 10:53:31;;;;;;;8.07;3.97;;;17.30;99.90;;;;;;5009849;28;20037;-68
2022/11/16 10:56:41;;;;;;;9.57;3.70;;;17.50;99.90;;;;;;5010557;28;20049;-68
2022/11/16 10:59:47;;;;;;;13.13;3.85;;;17.60;99.90;;;;;;5010382;28;20409;-67
2022/11/16 11:02:51;;;;;;;9.35;3.65;;;17.60;99.90;;;;;;5010821;28;20045;-68
2022/11/16 11:05:55;;;;;;;9.70;3.33;;;17.50;99.90;;;;;;5008744;28;20044;-68
2022/11/16 11:09:13;;;;;;;10.32;4.03;;;17.40;99.90;;;;;;5005052;28;20033;-68
2022/11/16 11:12:38;;;;;;;11.20;3.78;;;17.30;99.90;;;;;;5013559;28;20496;-68
2022/11/16 11:15:43;;;;;;;8.43;3.53;;;17.20;99.90;;;;;;5013841;28;20396;-68
2022/11/16 11:18:47;;;;;;;12.57;3.97;;;17.30;99.90;;;;;;5014335;28;20049;-69
2022/11/16 11:21:58;;;;;;;7.70;2.90;;;17.50;99.90;;;;;;5014037;28;20052;-68
2022/11/16 11:25:02;;;;;;;12.13;2.55;;;17.90;99.90;;;;;;5008748;28;20524;-68
2022/11/16 11:28:17;;;;;;;12.30;2.35;;;19.40;99.90;;;;;;5011933;28;20516;-67
2022/11/16 11:31:47;;;;;;;5.75;2.38;;;19.70;99.90;;;;;;5005535;28;20041;-68
2022/11/16 11:34:58;;;;;;;8.60;2.70;;;19.40;99.90;;;;;;5013226;28;20052;-68
2022/11/16 11:38:03;;;;;;;12.27;2.80;;;19.00;99.90;;;;;;5009656;28;20049;-68
2022/11/16 11:41:17;;;;;;;11.88;2.97;;;18.60;99.90;;;;;;5013134;28;20045;-69
2022/11/16 11:44:24;;;;;;;11.52;3.13;;;18.20;99.90;;;;;;5012446;28;20040;-69
2022/11/16 11:47:50;;;;;;;11.88;3.63;;;17.80;99.90;;;;;;5012778;28;20049;-68
2022/11/16 11:51:09;;;;;;;7.60;3.53;;;18.00;99.90;;;;;;5013411;28;20371;-68
2022/11/16 11:54:28;;;;;;;10.85;3.15;;;18.00;99.90;;;;;;5001341;28;20049;-68
2022/11/16 11:57:37;;;;;;;9.95;3.08;;;18.50;99.90;;;;;;4994399;28;20053;-68
2022/11/16 12:01:15;;;;;;;13.93;3.25;;;19.30;99.90;;;;;;5011929;28;20045;-68
2022/11/16 12:04:22;;;;;;;8.60;3.15;;;19.50;99.90;;;;;;5011430;28;20049;-68
2022/11/16 12:07:34;;;;;;;8.20;2.55;;;19.30;99.90;;;;;;5006901;28;20037;-68
2022/11/16 12:10:51;;;;;;;10.43;2.92;;;19.00;99.90;;;;;;5004927;28;20048;-69
2022/11/16 12:14:10;;;;;;;10.63;2.97;;;18.90;99.90;;;;;;5011969;28;20045;-68
2022/11/16 12:17:30;;;;;;;9.40;2.80;;;19.90;99.90;;;;;;5011503;28;20040;-68
2022/11/16 12:21:03;;;;;;;7.43;2.47;;;22.20;99.90;;;;;;5009662;28;20073;-68
2022/11/16 12:24:22;;;;;;;6.85;2.15;;;24.00;99.90;;;;;;5008656;28;20041;-67
2022/11/16 12:27:43;;;;;;;9.30;2.22;;;22.90;99.90;;;;;;5012667;28;20500;-67
2022/11/16 12:31:07;;;;;;;8.07;1.90;;;21.90;99.90;;;;;;5012956;28;20052;-67
2022/11/16 12:34:36;;;;;;;9.68;2.92;;;21.30;99.90;;;;;;5012584;28;20079;-68
2022/11/16 12:38:13;;;;;;;7.15;2.20;;;21.10;99.90;;;;;;5012622;28;20570;-68
2022/11/16 12:41:42;;;;;;;5.82;1.85;;;20.50;99.90;;;;;;5012540;28;20057;-68
2022/11/16 12:45:02;;;;;;;7.95;1.77;;;19.90;99.90;;;;;;5008036;28;20504;-67
2022/11/16 12:48:49;;;;;;;7.00;1.65;;;19.70;99.90;;;;;;5009531;28;20033;-68
2022/11/16 12:52:05;;;;;;;43.65;18.33;;;19.30;99.90;;;;;;5009342;28;20045;-68
2022/11/16 12:55:36;;;;;;;30.75;12.88;;;18.40;99.90;;;;;;5007708;28;20060;-68
2022/11/16 12:59:05;;;;;;;16.30;4.28;;;18.20;99.90;;;;;;5010032;28;20044;-69
2022/11/16 13:02:35;;;;;;;10.27;3.88;;;17.90;99.90;;;;;;5007540;28;20061;-69
2022/11/16 13:05:58;;;;;;;18.00;6.60;;;17.70;99.90;;;;;;5010526;28;20052;-69
2022/11/16 13:09:12;;;;;;;12.65;4.75;;;17.50;99.90;;;;;;5019336;28;20500;-69
2022/11/16 13:35:43;;;;;;;10.38;3.85;;;15.90;99.90;;;;;;5012364;28;20053;-69
2022/11/16 13:42:15;;;;;;;12.07;5.43;;;16.00;99.90;;;;;;5011915;28;20046;-68
2022/11/16 13:45:21;;;;;;;11.82;6.15;;;16.10;99.90;;;;;;5011464;28;20053;-69
2022/11/16 13:51:59;;;;;;;17.60;9.43;;;16.20;99.90;;;;;;4994328;28;20041;-70
2022/11/16 13:55:13;;;;;;;8.82;3.85;;;16.20;99.90;;;;;;5009348;28;20045;-68
2022/11/16 13:58:21;;;;;;;11.30;4.35;;;16.30;99.90;;;;;;5011054;28;20049;-69
2022/11/16 14:01:53;;;;;;;7.32;4.28;;;16.40;99.90;;;;;;4992779;28;20066;-69
2022/11/16 14:05:39;;;;;;;8.85;4.82;;;16.50;99.90;;;;;;5009611;28;20053;-69
2022/11/16 14:08:44;;;;;;;8.23;4.32;;;16.50;99.90;;;;;;5010100;28;20512;-70
2022/11/16 14:11:48;;;;;;;10.18;5.32;;;16.50;99.90;;;;;;5011391;28;20037;-69
2022/11/16 14:15:14;;;;;;;7.20;4.05;;;16.50;99.90;;;;;;5010246;28;20045;-69
2022/11/16 14:18:19;;;;;;;12.20;4.85;;;16.50;99.90;;;;;;5009058;28;20449;-69
2022/11/16 14:21:50;;;;;;;13.57;5.28;;;16.40;99.90;;;;;;5008693;28;20045;-69
2022/11/16 14:25:01;;;;;;;13.25;4.95;;;16.40;99.90;;;;;;5011443;28;20045;-69
2022/11/16 14:28:32;;;;;;;9.73;5.60;;;16.40;99.90;;;;;;5011455;28;20037;-69
2022/11/16 14:31:56;;;;;;;12.77;6.65;;;16.40;99.90;;;;;;5011451;28;20041;-68
2022/11/16 14:35:25;;;;;;;14.65;5.45;;;16.50;99.90;;;;;;5011334;28;20493;-69
2022/11/16 14:38:36;;;;;;;9.05;4.88;;;16.60;99.90;;;;;;5011415;28;20049;-70
2022/11/16 14:41:43;;;;;;;16.33;5.55;;;16.50;99.90;;;;;;5011581;28;20052;-69
2022/11/16 14:45:15;;;;;;;8.57;5.05;;;16.50;99.90;;;;;;5012567;28;20045;-69
2022/11/16 14:48:24;;;;;;;10.43;5.07;;;16.50;99.90;;;;;;5015221;28;20041;-69
2022/11/16 14:51:41;;;;;;;11.93;5.53;;;16.50;99.90;;;;;;5015289;28;20513;-69
2022/11/16 14:54:54;;;;;;;13.07;5.07;;;16.40;99.90;;;;;;5014898;28;20512;-69
2022/11/16 14:58:36;;;;;;;13.15;7.07;;;16.40;99.90;;;;;;5015452;28;20044;-69
2022/11/16 15:02:17;;;;;;;16.00;8.45;;;16.30;99.90;;;;;;5014930;28;20405;-69
2022/11/16 15:05:27;;;;;;;11.35;6.70;;;16.40;99.90;;;;;;5013741;28;20048;-69
2022/11/16 15:08:55;;;;;;;14.68;6.97;;;16.30;99.90;;;;;;5014748;28;20405;-69
2022/11/16 15:15:30;;;;;;;10.02;6.03;;;16.30;99.90;;;;;;5014712;28;20656;-69
2022/11/16 15:18:34;;;;;;;17.83;8.60;;;16.30;99.90;;;;;;5014725;28;20049;-69
2022/11/16 15:21:59;;;;;;;9.77;5.07;;;16.20;99.90;;;;;;5014266;28;20433;-70
2022/11/16 15:25:04;;;;;;;8.20;5.00;;;16.20;99.90;;;;;;5013961;28;20053;-69
2022/11/16 15:28:29;;;;;;;12.18;6.40;;;16.20;99.90;;;;;;5014225;28;20057;-69
2022/11/16 15:31:35;;;;;;;15.43;5.78;;;16.20;99.90;;;;;;5014164;28;20045;-69
2022/11/16 15:34:39;;;;;;;10.13;5.55;;;16.10;99.90;;;;;;5014003;28;20393;-70
2022/11/16 15:38:04;;;;;;;14.07;6.57;;;15.90;99.90;;;;;;5013510;28;20041;-69
2022/11/16 15:41:28;;;;;;;11.98;8.82;;;15.80;99.90;;;;;;5014084;28;20049;-69
2022/11/16 15:45:19;;;;;;;13.30;7.85;;;15.70;99.90;;;;;;5013625;28;20057;-69
2022/11/16 15:48:25;;;;;;;20.08;8.98;;;15.50;99.90;;;;;;5013839;28;20045;-69
2022/11/16 15:51:30;;;;;;;15.88;8.13;;;15.30;99.90;;;;;;5013694;28;20041;-69
2022/11/16 15:58:17;;;;;;;17.42;9.35;;;15.10;99.90;;;;;;5013009;28;20049;-69
2022/11/16 16:01:21;;;;;;;15.35;7.35;;;15.00;99.90;;;;;;5013854;28;20056;-69
2022/11/16 16:04:27;;;;;;;11.05;7.03;;;14.90;99.90;;;;;;5013480;28;20129;-70
2022/11/16 16:07:36;;;;;;;17.05;5.55;;;14.90;99.90;;;;;;5013462;28;20045;-69
2022/11/16 16:10:41;;;;;;;15.38;5.50;;;14.80;99.90;;;;;;5013553;28;20045;-68
2022/11/16 16:13:57;;;;;;;11.63;4.97;;;14.70;99.90;;;;;;5012257;28;20049;-69
2022/11/16 16:17:01;;;;;;;10.07;4.57;;;14.60;99.90;;;;;;5013435;28;20057;-69
2022/11/16 16:23:55;;;;;;;9.63;6.00;;;14.50;99.90;;;;;;5013336;28;20053;-69
2022/11/16 16:26:59;;;;;;;12.73;6.15;;;14.40;99.90;;;;;;5012970;28;20053;-70
2022/11/16 16:30:05;;;;;;;14.98;7.78;;;14.40;99.90;;;;;;5012961;28;20048;-70
2022/11/16 16:33:21;;;;;;;15.20;9.07;;;14.30;99.90;;;;;;5013101;28;20516;-70
2022/11/16 16:36:25;;;;;;;15.85;10.27;;;14.20;99.90;;;;;;5012804;28;20045;-70
2022/11/16 16:39:32;;;;;;;17.60;10.02;;;14.20;99.90;;;;;;5013046;28;20057;-70
2022/11/16 16:42:39;;;;;;;13.13;7.40;;;14.10;99.90;;;;;;5013045;28;20065;-70
2022/11/16 16:46:03;;;;;;;12.18;7.55;;;14.00;99.90;;;;;;5012448;28;20049;-70
2022/11/16 16:49:07;;;;;;;11.60;7.63;;;14.10;99.90;;;;;;5012630;28;20503;-70
2022/11/16 16:52:30;;;;;;;22.58;11.18;;;14.00;99.90;;;;;;5012558;28;20049;-70
2022/11/16 16:55:35;;;;;;;17.42;9.45;;;14.00;99.90;;;;;;5011522;28;20060;-70
2022/11/16 16:58:39;;;;;;;30.63;18.02;;;14.00;99.90;;;;;;5012444;28;20381;-69
2022/11/16 17:01:43;;;;;;;41.10;22.70;;;14.00;99.90;;;;;;5012474;28;20508;-70
2022/11/16 17:04:48;;;;;;;23.63;17.33;;;14.10;99.90;;;;;;5012152;28;20048;-70
2022/11/16 17:08:11;;;;;;;31.60;20.23;;;14.10;99.90;;;;;;5012395;28;20049;-70
2022/11/16 17:11:16;;;;;;;30.98;20.52;;;14.10;99.90;;;;;;5011450;28;20496;-69
2022/11/16 17:14:23;;;;;;;41.53;22.20;;;14.00;99.90;;;;;;5012195;28;20059;-69
2022/11/16 17:17:46;;;;;;;27.60;18.08;;;14.00;99.90;;;;;;5012059;28;20036;-67
2022/11/16 17:20:50;;;;;;;26.92;17.20;;;14.00;99.90;;;;;;5012461;28;20384;-69
2022/11/16 17:27:16;;;;;;;33.88;22.70;;;13.90;99.90;;;;;;5010983;28;20049;-69
2022/11/16 17:34:02;;;;;;;24.65;13.23;;;13.80;99.90;;;;;;5011801;28;20049;-69
2022/11/16 17:37:06;;;;;;;25.33;13.70;;;13.80;99.90;;;;;;5012194;28;20045;-69
2022/11/16 17:40:10;;;;;;;18.55;12.15;;;13.70;99.90;;;;;;5011890;28;20041;-69
2022/11/16 17:43:16;;;;;;;16.83;10.73;;;13.70;99.90;;;;;;5011750;28;20053;-69
2022/11/16 17:46:24;;;;;;;18.40;10.80;;;13.60;99.90;;;;;;5011846;28;20492;-69
2022/11/16 17:49:28;;;;;;;18.55;11.52;;;13.60;99.90;;;;;;5012180;28;20064;-69